Beatty, Nevada Weather observations

Data are for observation ending at time listed.
 Day   Time    Ave.   Ave.  Ave.  Vector   Max.   Stn.    Total    Solar   Ave.  
  of    of     Air    Rel.  Wind   Wind    Wind   Baro.  Precip.   Rad.    Soil  
Year   Day     Temp.  Hum.  Speed  Dir.    Gust   Pres.                    Temp. 
2016   (PST)    F      %     mph   deg.    mph     mb.     in.     W/m2     F   
------------------------------------------------------------------------------
 204   19:20   92.3    10    0.7   266      2.0   897.8    0.00       0    91.4
 204   19:30   90.9    11    0.5   346      1.8   898.0    0.00       0    91.4
 204   19:40   89.2    11    0.6    38      1.8   898.1    0.00       0    91.5
 204   19:50   88.2    11    0.5     1      2.1   898.2    0.00       0    91.4
 204   20:00   86.7    11    0.8   332      2.0   898.3    0.00       0    91.4
 204   20:10   86.2    11    1.1   342      2.4   898.5    0.00       0    91.5
 204   20:20   85.8    11    1.3    50      2.5   898.6    0.00       0    91.5
 204   20:30   84.4    12    0.9    20      2.0   898.7    0.00       0    91.5
 204   20:40   82.1    14    0.8   338      2.6   898.8    0.00       0    91.5
 204   20:50   82.1    12    1.5    60      2.6   899.0    0.00       0    91.5
 204   21:00   82.4    12    1.2    31      2.9   899.1    0.00       0    91.5
 204   21:10   81.9    12    1.6    47      4.1   899.1    0.00       0    91.5
 204   21:20   81.4    12    1.7    31      2.9   899.1    0.00       0    91.5
 204   21:30   80.7    12    1.6    62      2.3   899.2    0.00       0    91.5
 204   21:40   79.0    13    1.9    62      3.7   899.2    0.00       0    91.5
 204   21:50   78.9    13    2.1    22      3.8   899.2    0.00       0    91.5
 204   22:00   78.4    13    2.4    26      4.6   899.2    0.00       0    91.5
 204   22:10   77.5    13    1.9    73      3.6   899.3    0.00       0    91.5
 204   22:20   76.5    13    1.5    52      3.4   899.4    0.00       0    91.5
 204   22:30   79.1    12    3.2    22      6.6   899.4    0.00       0    91.5
 204   22:40   80.5    12    4.1    10      7.0   899.4    0.00       0    91.5
 204   22:50   80.3    12    4.5   350      7.2   899.5    0.00       0    91.5
 204   23:00   81.2    11    2.7     1      6.1   899.4    0.00       0    91.5
 204   23:10   83.4    11    2.9     4      5.8   899.4    0.00       0    91.5
 204   23:20   81.4    11    5.0   358      8.8   899.4    0.00       0    91.5
 204   23:30   81.3    11    5.0   358      8.6   899.5    0.00       0    91.5
 204   23:40   79.2    12    5.1    12     12.2   899.5    0.00       0    91.4
 204   23:50   79.4    12    6.0   356      9.1   899.5    0.00       0    91.4
 205    0:00   80.4    11    4.8     4      9.8   899.5    0.00       0    91.4
 205    0:10   81.3    11    4.9     3      8.0   899.6    0.00       0    91.3
 205    0:20   80.6    11    4.9    17      9.7   899.6    0.00       0    91.3
 205    0:30   80.2    11    4.7    23      8.6   899.6    0.00       0    91.3
 205    0:40   77.5    12    4.6    12      8.0   899.6    0.00       0    91.3
 205    0:50   76.3    13    7.2   356     10.0   899.6    0.00       0    91.3
 205    1:00   75.8    13    5.8   357     10.2   899.6    0.00       0    91.3
 205    1:10   76.2    13    6.5     2     11.2   899.6    0.00       0    91.3
 205    1:20   76.0    13    3.3    46      8.6   899.6    0.00       0    91.3
 205    1:30   74.6    13    2.7    52      6.9   899.6    0.00       0    91.2
 205    1:40   73.4    14    3.1    56      6.5   899.5    0.00       0    91.2
 205    1:50   72.9    14    3.1    37      7.2   899.5    0.00       0    91.1
 205    2:00   74.3    13    2.8    38      6.7   899.6    0.00       0    91.1
 205    2:10   75.3    13    2.6    36      6.4   899.6    0.00       0    91.1
 205    2:20   76.1    13    3.4    44      7.5   899.5    0.00       0    91.0
 205    2:30   76.3    13    4.3    25      9.0   899.5    0.00       0    91.0
 205    2:40   76.1    13    5.2    20     10.6   899.4    0.00       0    91.0
 205    2:50   75.1    13    6.2    12     10.6   899.4    0.00       0    90.9
 205    3:00   74.2    13    6.2    18     10.7   899.5    0.00       0    90.9
 205    3:10   73.3    14    5.8    33     11.9   899.6    0.00       0    90.8
 205    3:20   70.9    15    4.4    35     10.2   899.6    0.00       0    90.8
 205    3:30   71.0    15    4.0    44     12.3   899.6    0.00       0    90.8
 205    3:40   72.3    14    4.4    40      9.7   899.6    0.00       0    90.7
 205    3:50   73.4    13    5.7    20     11.7   899.6    0.00       0    90.7
 205    4:00   72.8    14    6.3    28     13.7   899.6    0.00       0    90.6
 205    4:10   73.2    13    6.4    16     13.3   899.7    0.00       0    90.6
 205    4:20   74.2    13    5.9    24      9.9   899.7    0.00       0    90.5
 205    4:30   74.5    12    5.5    27      9.6   899.8    0.00       0    90.5
 205    4:40   75.4    12    4.2    36     11.5   899.8    0.00       0    90.4
 205    4:50   76.9    11    3.6    41      9.6   899.9    0.00       2    90.4
 205    5:00   77.5    10    5.2    23     10.6   900.0    0.00       5    90.3
 205    5:10   76.4    11    4.1    28     11.1   900.1    0.00       9    90.3
 205    5:20   75.6    11    4.0    14      8.0   900.2    0.00      12    90.2
 205    5:30   74.4    12    5.6   356      9.3   900.2    0.00      53    90.2
 205    5:40   74.5    12    5.8   356     10.1   900.3    0.00     101    90.1
 205    5:50   74.7    12    6.2   357      9.9   900.3    0.00     128    90.0
 205    6:00   76.2    12    4.7   357      8.2   900.5    0.00     154    90.0
 205    6:10   77.1    12    4.8   358      8.0   900.6    0.00     180    89.9
 205    6:20   78.6    11    4.2    18     10.3   900.6    0.00     208    89.9
 205    6:30   80.8    10    3.5    41      7.9   900.7    0.00     165    89.8
 205    6:40   82.0     9    3.3    57      8.7   900.6    0.00      53    89.7
 205    6:50   82.8     9    3.5    63      7.5   900.5    0.00      53    89.6
 205    7:00   83.4     9    4.7    79     10.7   900.5    0.00      89    89.6
 205    7:10   84.3     8    5.3    84      9.3   900.5    0.00      34    89.5
 205    7:20   85.4     8    3.7    91      7.8   900.5    0.00      30    89.5
 205    7:30   86.4     7    4.1    98      9.6   900.5    0.00      35    89.4
 205    7:40   87.2     7    2.7    84      6.1   900.5    0.00      74    89.4
 205    7:50   88.1     7    1.9    80      4.7   900.5    0.00     420    89.3
 205    8:00   89.0     7    1.4    63      3.7   900.4    0.00     474    89.3
 205    8:10   90.3     7    1.4   102      4.0   900.4    0.00     497    89.3
 205    8:20   91.7     7    0.7   222      2.3   900.3    0.00     522    89.2
 205    8:30   92.8     6    1.5   114      3.4   900.2    0.00     544    89.1
 205    8:40   93.2     6    1.3    74      3.9   900.2    0.00     571    89.0
 205    8:50   93.9     6    2.1    94      4.9   900.2    0.00     591    88.9
 205    9:00   94.0     6    3.1    92      7.2   900.1    0.00     612    88.9
 205    9:10   95.0     6    2.0    36      5.6   900.0    0.00     637    88.8
 205    9:20   96.5     6    1.4    18      4.5   900.0    0.00     655    88.8
 205    9:30   96.9     6    1.6    94      4.3   899.9    0.00     673    88.7
 205    9:40   96.9     6    2.4   112      5.7   899.8    0.00     688    88.6
 205    9:50   97.3     6    1.4   107      2.8   899.7    0.00     707    88.6
 205   10:00   98.6     6    2.4   140      6.9   899.6    0.00     716    88.5
 205   10:10   97.9     6    2.9   138      7.3   899.5    0.00     725    88.5
 205   10:20   99.0     6    2.1   189      5.8   899.4    0.00     743    88.5
 205   10:30   99.6     6    3.5   195      6.6   899.3    0.00     756    88.4
 205   10:40   99.7     6    3.8   177      6.5   899.2    0.00     766    88.4
 205   10:50   99.6     6    3.0   101      7.6   899.1    0.00     779    88.4
 205   11:00  100.0     6    2.9   100      5.6   899.0    0.00     786    88.4
 205   11:10  100.9     6    3.1   182      7.5   898.9    0.00     788    88.3
 205   11:20  101.2     6    3.6   215      9.1   898.7    0.00     790    88.3
 205   11:30  100.5     6    4.6   231      8.8   898.6    0.00     797    88.3
 205   11:40  101.0     6    5.5   206     13.2   898.6    0.00     776    88.3
 205   11:50  101.9     6    7.8   167     14.4   898.5    0.00     778    88.3
 205   12:00  101.3     6    7.1   160     12.6   898.5    0.00     793    88.4
 205   12:10  102.1     6    6.2   200     12.6   898.3    0.00     802    88.4
 205   12:20  102.8     6    5.9   198     13.6   898.2    0.00     791    88.4
 205   12:30  102.8     6    4.9   191     11.8   898.0    0.00     787    88.5
 205   12:40  103.4     6    7.3   197     13.7   897.8    0.00     776    88.5
 205   12:50  103.6     6    5.7   183     13.6   897.7    0.00     777    88.6
 205   13:00  103.7     6    7.2   173     15.1   897.6    0.00     766    88.7
 205   13:10  103.5     6    8.9   190     15.1   897.5    0.00     756    88.8
 205   13:20  103.7     6    8.0   185     16.5   897.4    0.00     716    88.9
 205   13:30  103.6     6    9.1   185     16.9   897.2    0.00     708    89.0
 205   13:40  103.2     6    8.6   200     16.4   897.1    0.00     707    89.0
 205   13:50  103.6     6    8.3   195     19.7   897.0    0.00     690    89.1
 205   14:00  103.5     6    9.3   209     16.5   896.8    0.00     658    89.2
 205   14:10  103.2     6    7.6   213     14.5   896.7    0.00     641    89.3
 205   14:20  103.7     6    7.5   206     14.2   896.6    0.00     636    89.5
 205   14:30  104.6     6    6.6   206     11.8   896.6    0.00     614    89.6
 205   14:40  104.2     6    8.6   210     16.0   896.4    0.00     603    89.7
 205   14:50  103.7     6    8.1   202     15.8   896.3    0.00     586    89.8
 205   15:00  103.7     6    8.5   218     14.4   896.1    0.00     561    89.9
 205   15:10  103.2     6    8.9   219     17.8   896.0    0.00     538    90.0
 205   15:20  102.9     6    7.8   220     14.8   895.9    0.00     516    90.2
 205   15:30  103.9     6    7.1   209     13.8   895.9    0.00     505    90.3
 205   15:40  103.4     6    7.3   219     16.4   895.8    0.00     479    90.4
 205   15:50  104.0     6    6.9   200     12.9   895.7    0.00     455    90.5
 205   16:00  103.5     6    7.7   214     13.7   895.7    0.00     423    90.6
 205   16:10  103.6     6    5.4   226     10.9   895.6    0.00     390    90.7
 205   16:20  103.9     6    6.7   211     12.4   895.5    0.00     372    90.8
 205   16:30  104.2     6    5.8   190     13.4   895.4    0.00     357    90.9
 205   16:40  103.9     6    7.1   201     13.0   895.2    0.00     326    91.0
 205   16:50  104.3     6    6.1   186     14.2   895.2    0.00     301    91.1
 205   17:00  103.6     7    7.4   206     16.8   895.1    0.00     269    91.1
 205   17:10  103.7     6    6.0   211     11.2   895.0    0.00     218    91.2
 205   17:20  103.3     7    6.2   201     12.0   895.0    0.00     218    91.3
 205   17:30  102.7     7    6.6   208     11.3   895.0    0.00     194    91.4
 205   17:40  102.8     7    6.0   205     12.3   894.9    0.00     167    91.4
 205   17:50  102.5     7    6.0   207      9.6   894.9    0.00     143    91.5
 205   18:00  101.9     7    6.1   204     10.5   894.9    0.00     119    91.5
 205   18:10  101.4     7    6.1   215      9.9   894.9    0.00      97    91.6
 205   18:20  100.9     7    6.5   215     10.7   894.9    0.00      73    91.6
 205   18:30  100.3     7    6.1   216     11.0   895.0    0.00      48    91.6
 205   18:40   99.5     8    5.3   218      9.1   895.0    0.00      19    91.7
 205   18:50   98.7     8    4.9   220      8.9   895.0    0.00      12    91.7
 205   19:00   97.9     8    3.7   214      6.0   895.1    0.00       7    91.7
 205   19:10   96.5     9    2.8   206      4.2   895.2    0.00       3    91.8

Return to Beatty, Nevada graphs page.


Western Regional Climate Center,wrcc@dri.edu